createdAt,value
2024-04-09T00:00:43.034Z,24.71
2024-04-09T00:01:28.066Z,24.67
2024-04-09T00:02:28.037Z,24.68
2024-04-09T00:03:28.322Z,24.68
2024-04-09T00:04:28.078Z,24.69
2024-04-09T00:05:27.984Z,24.69
2024-04-09T00:07:03.514Z,24.69
2024-04-09T00:07:28.107Z,24.62
2024-04-09T00:08:28.110Z,24.65
2024-04-09T00:09:28.179Z,24.66
2024-04-09T00:10:28.114Z,24.67
2024-04-09T00:11:28.163Z,24.68
2024-04-09T00:12:28.222Z,24.67
2024-04-09T00:13:28.161Z,24.67
2024-04-09T00:14:28.208Z,24.67
2024-04-09T00:15:28.250Z,24.67
2024-04-09T00:16:30.380Z,24.67
2024-04-09T00:17:28.322Z,24.67
2024-04-09T00:18:28.459Z,24.67
2024-04-09T00:19:28.432Z,24.67
2024-04-09T00:20:28.196Z,24.67
2024-04-09T00:21:28.252Z,24.66
2024-04-09T00:22:28.167Z,24.66
2024-04-09T00:23:28.147Z,24.66
2024-04-09T00:24:28.156Z,24.66
2024-04-09T00:25:43.027Z,24.66
2024-04-09T00:26:28.097Z,24.65
2024-04-09T00:27:28.100Z,24.65
2024-04-09T00:28:46.522Z,24.65
2024-04-09T00:29:28.056Z,24.62
2024-04-09T00:30:28.043Z,24.63
2024-04-09T00:31:42.531Z,24.64
2024-04-09T00:32:28.161Z,24.63
2024-04-09T00:33:28.268Z,24.63
2024-04-09T00:34:28.267Z,24.64
2024-04-09T00:35:28.164Z,24.64
2024-04-09T00:36:28.241Z,24.63
2024-04-09T00:37:28.188Z,24.64
2024-04-09T00:38:28.225Z,24.64
2024-04-09T00:39:28.343Z,24.64
2024-04-09T00:40:28.282Z,24.64
2024-04-09T00:41:28.316Z,24.64
2024-04-09T00:42:28.475Z,24.63
2024-04-09T00:43:28.378Z,24.63
2024-04-09T00:44:28.413Z,24.64
2024-04-09T00:45:28.508Z,24.63
2024-04-09T00:46:28.470Z,24.63
2024-04-09T00:47:28.594Z,24.63
2024-04-09T00:48:28.800Z,24.63
2024-04-09T00:49:28.611Z,24.62
2024-04-09T00:50:28.615Z,24.63
2024-04-09T00:51:28.689Z,24.63
2024-04-09T00:52:28.673Z,24.62
2024-04-09T00:53:36.549Z,24.63
2024-04-09T00:54:28.820Z,24.61
2024-04-09T00:55:28.676Z,24.62
2024-04-09T00:56:49.675Z,24.62
2024-04-09T00:57:28.755Z,24.58
2024-04-09T00:58:28.658Z,24.59
2024-04-09T00:59:52.536Z,24.60
2024-04-09T01:00:28.725Z,24.56
2024-04-09T01:01:28.679Z,24.58
2024-04-09T01:02:28.690Z,24.59
2024-04-09T01:03:28.752Z,24.60
2024-04-09T01:04:28.859Z,24.59
2024-04-09T01:05:28.603Z,24.60
2024-04-09T01:06:28.621Z,24.60
2024-04-09T01:07:28.574Z,24.60
2024-04-09T01:08:28.573Z,24.59
2024-04-09T01:09:28.588Z,24.60
2024-04-09T01:10:28.538Z,24.59
2024-04-09T01:11:28.614Z,24.59
2024-04-09T01:12:28.636Z,24.60
2024-04-09T01:13:28.523Z,24.59
2024-04-09T01:14:29.605Z,24.59
2024-04-09T01:15:31.135Z,24.59
2024-04-09T01:16:28.484Z,24.59
2024-04-09T01:17:28.550Z,24.59
2024-04-09T01:18:28.568Z,24.59
2024-04-09T01:19:28.441Z,24.59
2024-04-09T01:20:28.437Z,24.59
2024-04-09T01:21:31.118Z,24.59
2024-04-09T01:22:28.410Z,24.59
2024-04-09T01:23:28.413Z,24.59
2024-04-09T01:24:52.044Z,24.59
2024-04-09T01:25:28.373Z,24.55
2024-04-09T01:26:28.386Z,24.57
2024-04-09T01:27:28.454Z,24.57
2024-04-09T01:28:28.342Z,24.58
2024-04-09T01:29:28.335Z,24.58
2024-04-09T01:30:28.397Z,24.58
2024-04-09T01:31:28.319Z,24.58
2024-04-09T01:32:28.409Z,24.58
2024-04-09T01:33:28.400Z,24.57
2024-04-09T01:34:28.308Z,24.58
2024-04-09T01:35:28.276Z,24.57
2024-04-09T01:36:28.348Z,24.58
2024-04-09T01:37:28.262Z,24.58
2024-04-09T01:38:28.253Z,24.57
2024-04-09T01:39:28.284Z,24.57
2024-04-09T01:40:28.224Z,24.58
2024-04-09T01:41:28.201Z,24.57
2024-04-09T01:42:28.300Z,24.57
2024-04-09T01:43:28.181Z,24.57
2024-04-09T01:44:28.173Z,24.57
2024-04-09T01:45:28.194Z,24.57
2024-04-09T01:46:43.096Z,24.57
2024-04-09T01:47:28.222Z,24.55
2024-04-09T01:48:28.269Z,24.56
2024-04-09T01:49:49.131Z,24.56
2024-04-09T01:50:28.108Z,24.53
2024-04-09T01:51:28.168Z,24.55
2024-04-09T01:52:52.054Z,24.54
2024-04-09T01:53:28.074Z,24.51
2024-04-09T01:54:28.208Z,24.54
2024-04-09T01:55:28.046Z,24.55
2024-04-09T01:56:28.046Z,24.55
2024-04-09T01:57:28.227Z,24.55
2024-04-09T01:58:28.022Z,24.56
2024-04-09T01:59:28.026Z,24.55
2024-04-09T02:00:28.062Z,24.55
2024-04-09T02:01:28.047Z,24.56
2024-04-09T02:02:28.074Z,24.55
2024-04-09T02:03:28.100Z,24.55
2024-04-09T02:04:28.093Z,24.55
2024-04-09T02:05:27.965Z,24.55
2024-04-09T02:06:27.974Z,24.54
2024-04-09T02:07:27.951Z,24.54
2024-04-09T02:08:27.954Z,24.55
2024-04-09T02:09:27.987Z,24.54
2024-04-09T02:10:27.926Z,24.55
2024-04-09T02:11:42.588Z,24.54
2024-04-09T02:12:28.123Z,24.53
2024-04-09T02:13:27.893Z,24.53
2024-04-09T02:14:29.441Z,24.54
2024-04-09T02:15:28.000Z,24.54
2024-04-09T02:16:27.906Z,24.54
2024-04-09T02:17:51.620Z,24.54
2024-04-09T02:18:28.020Z,24.50
2024-04-09T02:19:27.843Z,24.52
2024-04-09T02:20:27.869Z,24.53
2024-04-09T02:21:27.967Z,24.53
2024-04-09T02:22:27.814Z,24.53
2024-04-09T02:23:27.803Z,24.53
2024-04-09T02:24:27.873Z,24.53
2024-04-09T02:25:27.781Z,24.53
2024-04-09T02:26:27.768Z,24.54
2024-04-09T02:27:27.772Z,24.53
2024-04-09T02:28:27.761Z,24.53
2024-04-09T02:29:27.740Z,24.53
2024-04-09T02:30:27.761Z,24.52
2024-04-09T02:31:27.693Z,24.54
2024-04-09T02:32:27.717Z,24.52
2024-04-09T02:33:27.734Z,24.53
2024-04-09T02:34:27.668Z,24.52
2024-04-09T02:35:27.656Z,24.52
2024-04-09T02:36:42.636Z,24.52
2024-04-09T02:37:27.626Z,24.50
2024-04-09T02:38:27.646Z,24.50
2024-04-09T02:39:34.727Z,24.52
2024-04-09T02:40:27.608Z,24.50
2024-04-09T02:41:27.586Z,24.51
2024-04-09T02:42:51.073Z,24.51
2024-04-09T02:43:27.689Z,24.48
2024-04-09T02:44:27.706Z,24.50
2024-04-09T02:45:48.752Z,24.50
2024-04-09T02:46:27.813Z,24.47
2024-04-09T02:47:27.775Z,24.49
2024-04-09T02:48:27.855Z,24.49
2024-04-09T02:49:27.688Z,24.49
2024-04-09T02:50:27.741Z,24.50
2024-04-09T02:51:27.682Z,24.51
2024-04-09T02:52:27.688Z,24.51
2024-04-09T02:53:27.662Z,24.51
2024-04-09T02:54:27.682Z,24.50
2024-04-09T02:55:27.654Z,24.50
2024-04-09T02:56:27.642Z,24.50
2024-04-09T02:57:27.757Z,24.50
2024-04-09T02:58:27.646Z,24.51
2024-04-09T02:59:27.589Z,24.51
2024-04-09T03:00:27.985Z,24.50
2024-04-09T03:01:42.086Z,24.50
2024-04-09T03:02:27.781Z,24.48
2024-04-09T03:03:27.857Z,24.49
2024-04-09T03:04:27.797Z,24.49
2024-04-09T03:05:27.770Z,24.50
2024-04-09T03:06:27.806Z,24.49
2024-04-09T03:07:30.583Z,24.49
2024-04-09T03:08:27.811Z,24.49
2024-04-09T03:09:27.853Z,24.49
2024-04-09T03:10:56.634Z,24.49
2024-04-09T03:11:27.841Z,24.44
2024-04-09T03:12:27.813Z,24.46
2024-04-09T03:13:27.773Z,24.47
2024-04-09T03:14:27.764Z,24.48
2024-04-09T03:15:27.799Z,24.48
2024-04-09T03:16:27.783Z,24.48
2024-04-09T03:17:27.803Z,24.49
2024-04-09T03:18:27.760Z,24.49
2024-04-09T03:19:27.724Z,24.49
2024-04-09T03:20:27.753Z,24.48
2024-04-09T03:21:27.763Z,24.48
2024-04-09T03:22:27.713Z,24.48
2024-04-09T03:23:27.734Z,24.48
2024-04-09T03:24:27.802Z,24.48
2024-04-09T03:25:27.830Z,24.48
2024-04-09T03:26:28.175Z,24.48
2024-04-09T03:27:27.946Z,24.49
2024-04-09T03:28:27.953Z,24.48
2024-04-09T03:29:28.000Z,24.48
2024-04-09T03:30:28.083Z,24.48
2024-04-09T03:31:28.098Z,24.49
2024-04-09T03:32:43.144Z,24.48
2024-04-09T03:33:28.326Z,24.46
2024-04-09T03:34:28.169Z,24.47
2024-04-09T03:35:33.616Z,24.47
2024-04-09T03:36:28.260Z,24.46
2024-04-09T03:37:28.256Z,24.47
2024-04-09T03:38:52.605Z,24.47
2024-04-09T03:39:28.290Z,24.44
2024-04-09T03:40:28.248Z,24.45
2024-04-09T03:41:28.232Z,24.46
2024-04-09T03:42:28.288Z,24.47
2024-04-09T03:43:28.211Z,24.46
2024-04-09T03:44:28.196Z,24.47
2024-04-09T03:45:28.218Z,24.46
2024-04-09T03:46:28.168Z,24.46
2024-04-09T03:47:28.229Z,24.46
2024-04-09T03:48:28.235Z,24.47
2024-04-09T03:49:28.242Z,24.46
2024-04-09T03:50:28.128Z,24.47
2024-04-09T03:51:28.135Z,24.47
2024-04-09T03:52:28.109Z,24.46
2024-04-09T03:53:28.094Z,24.46
2024-04-09T03:54:28.124Z,24.46
2024-04-09T03:55:28.072Z,24.45
2024-04-09T03:56:28.051Z,24.46
2024-04-09T03:57:42.735Z,24.45
2024-04-09T03:58:28.024Z,24.44
2024-04-09T03:59:28.030Z,24.45
2024-04-09T04:00:49.098Z,24.45
2024-04-09T04:01:28.051Z,24.42
2024-04-09T04:02:28.098Z,24.43
2024-04-09T04:03:46.391Z,24.44
2024-04-09T04:04:28.001Z,24.42
2024-04-09T04:05:27.974Z,24.43
2024-04-09T04:06:28.025Z,24.44
2024-04-09T04:07:27.912Z,24.44
2024-04-09T04:08:27.905Z,24.44
2024-04-09T04:09:27.924Z,24.44
2024-04-09T04:10:27.887Z,24.44
2024-04-09T04:11:27.978Z,24.45
2024-04-09T04:12:27.983Z,24.44
2024-04-09T04:13:27.869Z,24.45
2024-04-09T04:14:27.860Z,24.44
2024-04-09T04:15:27.904Z,24.44
2024-04-09T04:16:27.843Z,24.44
2024-04-09T04:17:27.883Z,24.44
2024-04-09T04:18:27.884Z,24.44
2024-04-09T04:19:34.619Z,24.44
2024-04-09T04:20:27.811Z,24.43
2024-04-09T04:21:27.865Z,24.43
2024-04-09T04:22:27.779Z,24.44
2024-04-09T04:23:27.772Z,24.44
2024-04-09T04:24:27.823Z,24.44
2024-04-09T04:25:48.760Z,24.44
2024-04-09T04:26:27.827Z,24.41
2024-04-09T04:27:27.798Z,24.42
2024-04-09T04:28:48.734Z,24.43
2024-04-09T04:29:27.711Z,24.40
2024-04-09T04:30:34.980Z,24.39
2024-04-09T04:31:49.807Z,24.39
2024-04-09T04:32:42.339Z,24.39
2024-04-09T04:33:42.444Z,24.41
2024-04-09T04:34:56.800Z,24.42
2024-04-09T04:35:42.428Z,24.41
2024-04-09T04:36:42.477Z,24.41
2024-04-09T04:38:04.310Z,24.42
2024-04-09T04:38:42.502Z,24.39
2024-04-09T04:39:42.551Z,24.41
2024-04-09T04:40:42.516Z,24.42
2024-04-09T04:41:42.522Z,24.42
2024-04-09T04:42:42.615Z,24.42
2024-04-09T04:43:42.546Z,24.42
2024-04-09T04:44:42.559Z,24.43
2024-04-09T04:45:42.600Z,24.43
2024-04-09T04:46:42.574Z,24.42
2024-04-09T04:47:42.631Z,24.42
2024-04-09T04:48:42.815Z,24.43
2024-04-09T04:49:42.680Z,24.43
2024-04-09T04:50:42.602Z,24.42
2024-04-09T04:51:42.701Z,24.43
2024-04-09T04:52:42.633Z,24.43
2024-04-09T04:53:50.313Z,24.42
2024-04-09T04:54:42.689Z,24.42
2024-04-09T04:55:42.663Z,24.43
2024-04-09T04:56:57.354Z,24.42
2024-04-09T04:57:42.681Z,24.41
2024-04-09T04:58:42.683Z,24.43
2024-04-09T04:59:57.334Z,24.44
2024-04-09T05:00:43.196Z,24.43
2024-04-09T05:01:43.012Z,24.46
2024-04-09T05:03:04.200Z,24.47
2024-04-09T05:03:43.047Z,24.45
2024-04-09T05:04:43.050Z,24.48
2024-04-09T05:05:43.022Z,24.49
2024-04-09T05:06:43.129Z,24.50
2024-04-09T05:07:43.022Z,24.51
2024-04-09T05:08:43.023Z,24.52
2024-04-09T05:09:43.054Z,24.53
2024-04-09T05:10:43.029Z,24.53
2024-04-09T05:11:43.064Z,24.53
2024-04-09T05:12:43.074Z,24.53
2024-04-09T05:13:43.044Z,24.54
2024-04-09T05:14:43.815Z,24.54
2024-04-09T05:15:43.143Z,24.55
2024-04-09T05:16:43.050Z,24.55
2024-04-09T05:17:43.169Z,24.55
2024-04-09T05:19:43.141Z,24.56
2024-04-09T05:20:43.080Z,24.56
2024-04-09T05:21:57.813Z,24.57
2024-04-09T05:22:43.117Z,24.56
2024-04-09T05:23:43.328Z,24.57
2024-04-09T05:24:43.121Z,24.58
2024-04-09T05:25:43.107Z,24.59
2024-04-09T05:26:43.140Z,24.61
2024-04-09T05:27:57.822Z,24.51
2024-04-09T05:28:43.326Z,24.27
2024-04-09T05:29:43.826Z,24.15
2024-04-09T05:31:10.824Z,23.98
2024-04-09T05:31:46.604Z,23.93
2024-04-09T05:32:43.431Z,23.96
2024-04-09T05:33:43.396Z,24.01
2024-04-09T05:34:43.176Z,24.00
2024-04-09T05:35:43.189Z,23.93
2024-04-09T05:36:43.471Z,23.85
2024-04-09T05:37:43.622Z,23.77
2024-04-09T05:38:43.478Z,23.73
2024-04-09T05:39:43.451Z,23.74
2024-04-09T05:40:43.443Z,23.76
2024-04-09T05:41:43.324Z,23.78
2024-04-09T05:42:43.384Z,23.82
2024-04-09T05:43:43.346Z,23.84
2024-04-09T05:44:43.327Z,23.86
2024-04-09T05:45:43.402Z,23.91
2024-04-09T05:46:43.326Z,23.94
2024-04-09T05:47:43.508Z,23.97
2024-04-09T05:48:43.551Z,24.01
2024-04-09T05:49:46.387Z,24.03
2024-04-09T05:50:43.387Z,24.06
2024-04-09T05:51:43.386Z,24.09
2024-04-09T05:52:43.387Z,24.10
2024-04-09T05:53:43.426Z,24.11
2024-04-09T05:54:43.554Z,24.12
2024-04-09T05:56:04.456Z,24.12
2024-04-09T05:56:43.421Z,24.08
2024-04-09T05:57:43.637Z,24.10
2024-04-09T05:58:43.456Z,24.11
2024-04-09T05:59:43.479Z,24.12
2024-04-09T06:00:43.564Z,24.13
2024-04-09T06:01:43.554Z,24.14
2024-04-09T06:02:43.518Z,24.15
2024-04-09T06:03:43.606Z,24.15
2024-04-09T06:04:43.628Z,24.17
2024-04-09T06:05:43.579Z,24.17
2024-04-09T06:06:43.590Z,24.17
2024-04-09T06:07:43.567Z,24.17
2024-04-09T06:08:43.592Z,24.17
2024-04-09T06:09:43.642Z,24.18
2024-04-09T06:10:43.607Z,24.19
2024-04-09T06:11:50.377Z,24.20
2024-04-09T06:12:43.945Z,24.20
2024-04-09T06:13:43.666Z,24.22
2024-04-09T06:14:58.419Z,24.24
2024-04-09T06:15:43.681Z,24.24
2024-04-09T06:16:43.674Z,24.28
2024-04-09T06:18:00.044Z,24.30
2024-04-09T06:18:43.930Z,24.30
2024-04-09T06:19:43.933Z,24.32
2024-04-09T06:21:04.743Z,24.35
2024-04-09T06:21:43.803Z,24.33
2024-04-09T06:22:43.743Z,24.37
2024-04-09T06:23:43.764Z,24.39
2024-04-09T06:24:44.806Z,24.40
2024-04-09T06:25:43.777Z,24.41
2024-04-09T06:26:43.791Z,24.43
2024-04-09T06:27:43.849Z,24.44
2024-04-09T06:28:43.896Z,24.46
2024-04-09T06:29:43.850Z,24.47
2024-04-09T06:30:44.008Z,24.47
2024-04-09T06:31:43.855Z,24.45
2024-04-09T06:32:44.049Z,24.38
2024-04-09T06:33:43.911Z,24.28
2024-04-09T06:34:43.987Z,24.21
2024-04-09T06:35:43.918Z,24.16
2024-04-09T06:36:44.016Z,24.15
2024-04-09T06:37:43.958Z,24.17
2024-04-09T06:38:44.358Z,24.23
2024-04-09T06:39:44.246Z,24.28
2024-04-09T06:40:44.157Z,24.33
2024-04-09T06:41:44.210Z,24.39
2024-04-09T06:42:50.931Z,24.45
2024-04-09T06:43:44.293Z,24.49
2024-04-09T06:44:44.277Z,24.56
2024-04-09T06:46:07.854Z,24.61
2024-04-09T06:46:44.486Z,24.62
2024-04-09T06:47:44.585Z,24.69
2024-04-09T06:49:05.607Z,24.75
2024-04-09T06:49:44.922Z,24.75
2024-04-09T06:50:44.512Z,24.81
2024-04-09T06:51:44.571Z,24.85
2024-04-09T06:52:44.550Z,24.88
2024-04-09T06:53:44.527Z,24.92
2024-04-09T06:54:44.616Z,24.95
2024-04-09T06:55:44.526Z,24.98
2024-04-09T06:56:44.529Z,25.01
2024-04-09T06:57:44.554Z,25.04
2024-04-09T06:58:44.915Z,25.07
2024-04-09T06:59:44.561Z,25.09
2024-04-09T07:00:44.682Z,25.12
2024-04-09T07:01:44.755Z,25.14
2024-04-09T07:02:44.621Z,25.16
2024-04-09T07:03:44.713Z,25.18
2024-04-09T07:04:44.567Z,25.21
2024-04-09T07:05:44.548Z,25.23
2024-04-09T07:06:44.592Z,25.25
2024-04-09T07:07:44.537Z,25.26
2024-04-09T07:08:44.566Z,25.29
2024-04-09T07:09:44.641Z,25.30
2024-04-09T07:11:00.910Z,25.31
2024-04-09T07:11:44.576Z,25.30
2024-04-09T07:12:44.546Z,25.33
2024-04-09T07:14:08.902Z,25.34
2024-04-09T07:14:44.509Z,25.31
2024-04-09T07:15:44.540Z,25.34
2024-04-09T07:17:00.919Z,25.36
2024-04-09T07:17:44.586Z,25.35
2024-04-09T07:18:44.519Z,25.37
2024-04-09T07:19:44.544Z,25.37
2024-04-09T07:20:44.479Z,25.39
2024-04-09T07:21:44.668Z,25.38
2024-04-09T07:22:45.652Z,25.38
2024-04-09T07:23:44.487Z,25.40
2024-04-09T07:24:44.529Z,25.40
2024-04-09T07:25:44.485Z,25.40
2024-04-09T07:26:44.481Z,25.38
2024-04-09T07:27:44.460Z,25.39
2024-04-09T07:28:44.886Z,25.40
2024-04-09T07:29:44.465Z,25.35
2024-04-09T07:30:44.519Z,25.29
2024-04-09T07:31:44.499Z,25.26
2024-04-09T07:32:44.481Z,25.24
2024-04-09T07:33:44.537Z,25.24
2024-04-09T07:34:44.589Z,25.24
2024-04-09T07:35:44.643Z,25.25
2024-04-09T07:36:48.074Z,25.26
2024-04-09T07:37:44.686Z,25.26
2024-04-09T07:38:55.380Z,25.26
2024-04-09T07:39:44.703Z,25.23
2024-04-09T07:40:44.685Z,25.24
2024-04-09T07:42:08.071Z,25.23
2024-04-09T07:42:45.022Z,25.18
2024-04-09T07:43:45.437Z,25.21
2024-04-09T07:44:45.020Z,25.22
2024-04-09T07:45:45.153Z,25.21
2024-04-09T07:46:45.239Z,25.21
2024-04-09T07:47:45.290Z,25.21
2024-04-09T07:48:45.396Z,25.21
2024-04-09T07:49:45.432Z,25.22
2024-04-09T07:50:45.391Z,25.23
2024-04-09T07:51:45.481Z,25.25
2024-04-09T07:52:45.521Z,25.26
2024-04-09T07:53:45.612Z,25.27
2024-04-09T07:54:45.710Z,25.29
2024-04-09T07:55:45.728Z,25.31
2024-04-09T07:56:45.799Z,25.33
2024-04-09T07:57:45.866Z,25.34
2024-04-09T07:58:45.916Z,25.35
2024-04-09T07:59:45.976Z,25.35
2024-04-09T08:00:53.127Z,25.35
2024-04-09T08:01:46.010Z,25.35
2024-04-09T08:02:46.062Z,25.36
2024-04-09T08:03:46.206Z,25.39
2024-04-09T08:04:46.156Z,25.42
2024-04-09T08:05:46.058Z,25.45
2024-04-09T08:07:01.057Z,25.48
2024-04-09T08:07:46.016Z,25.49
2024-04-09T08:08:48.536Z,25.52
2024-04-09T08:10:07.033Z,25.55
2024-04-09T08:10:45.930Z,25.55
2024-04-09T08:11:46.117Z,25.59
2024-04-09T08:12:45.929Z,25.59
2024-04-09T08:13:45.901Z,25.59
2024-04-09T08:14:45.880Z,25.59
2024-04-09T08:15:46.000Z,25.58
2024-04-09T08:16:45.856Z,25.53
2024-04-09T08:17:46.028Z,25.49
2024-04-09T08:18:46.136Z,25.45
2024-04-09T08:19:45.899Z,25.43
2024-04-09T08:20:45.826Z,25.42
2024-04-09T08:21:45.848Z,25.40
2024-04-09T08:22:45.800Z,25.41
2024-04-09T08:23:45.834Z,25.37
2024-04-09T08:24:45.894Z,25.29
2024-04-09T08:25:45.775Z,25.24
2024-04-09T08:26:45.765Z,25.19
2024-04-09T08:27:45.802Z,25.16
2024-04-09T08:28:59.911Z,25.13
2024-04-09T08:29:45.744Z,25.09
2024-04-09T08:30:45.782Z,25.07
2024-04-09T08:31:52.463Z,25.05
2024-04-09T08:32:45.762Z,25.03
2024-04-09T08:33:45.822Z,25.02
2024-04-09T08:35:09.543Z,25.01
2024-04-09T08:35:45.815Z,24.97
2024-04-09T08:36:45.831Z,25.00
2024-04-09T08:37:45.841Z,25.01
2024-04-09T08:38:45.807Z,25.04
2024-04-09T08:39:45.910Z,25.05
2024-04-09T08:40:45.740Z,25.06
2024-04-09T08:41:45.738Z,25.10
2024-04-09T08:42:45.915Z,25.12
2024-04-09T08:43:45.795Z,25.14
2024-04-09T08:44:45.746Z,25.15
2024-04-09T08:45:45.798Z,25.18
2024-04-09T08:46:45.802Z,25.20
2024-04-09T08:47:46.062Z,25.22
2024-04-09T08:48:46.178Z,25.24
2024-04-09T08:49:46.059Z,25.24
2024-04-09T08:50:45.889Z,25.26
2024-04-09T08:51:45.949Z,25.27
2024-04-09T08:52:45.880Z,25.29
2024-04-09T08:53:52.411Z,25.31
2024-04-09T08:54:45.751Z,25.31
2024-04-09T08:55:45.714Z,25.34
2024-04-09T08:56:45.715Z,25.36
2024-04-09T08:57:45.729Z,25.36
2024-04-09T08:58:45.711Z,25.38
2024-04-09T09:00:06.895Z,25.39
2024-04-09T09:00:45.776Z,25.36
2024-04-09T09:01:45.706Z,25.37
2024-04-09T09:03:21.296Z,25.39
2024-04-09T09:03:46.036Z,25.35
2024-04-09T09:04:46.097Z,25.41
2024-04-09T09:05:45.979Z,25.44
2024-04-09T09:06:46.099Z,25.46
2024-04-09T09:07:46.041Z,25.48
2024-04-09T09:08:46.079Z,25.50
2024-04-09T09:09:46.474Z,25.52
2024-04-09T09:10:46.170Z,25.54
2024-04-09T09:11:46.183Z,25.54
2024-04-09T09:12:46.324Z,25.57
2024-04-09T09:13:46.264Z,25.58
2024-04-09T09:14:46.307Z,25.60
2024-04-09T09:15:46.441Z,25.60
2024-04-09T09:16:46.418Z,25.61
2024-04-09T09:17:46.456Z,25.61
2024-04-09T09:18:47.447Z,25.61
2024-04-09T09:19:46.453Z,25.61
2024-04-09T09:20:46.556Z,25.62
2024-04-09T09:21:46.682Z,25.62
2024-04-09T09:22:46.552Z,25.62
2024-04-09T09:23:46.591Z,25.61
2024-04-09T09:25:00.925Z,25.61
2024-04-09T09:25:46.625Z,25.59
2024-04-09T09:26:46.622Z,25.59
2024-04-09T09:28:01.444Z,25.58
2024-04-09T09:28:46.602Z,25.56
2024-04-09T09:29:46.969Z,25.54
2024-04-09T09:30:46.816Z,25.48
2024-04-09T09:31:46.733Z,25.40
2024-04-09T09:32:46.673Z,25.33
2024-04-09T09:33:46.653Z,25.25
2024-04-09T09:34:46.964Z,25.21
2024-04-09T09:35:46.605Z,25.17
2024-04-09T09:36:46.654Z,25.14
2024-04-09T09:37:46.608Z,25.12
2024-04-09T09:38:46.635Z,25.10
2024-04-09T09:39:47.006Z,25.11
2024-04-09T09:40:46.626Z,25.12
2024-04-09T09:41:46.612Z,25.11
2024-04-09T09:42:46.728Z,25.13
2024-04-09T09:43:46.606Z,25.12
2024-04-09T09:44:46.622Z,25.14
2024-04-09T09:45:46.740Z,25.13
2024-04-09T09:46:53.428Z,25.12
2024-04-09T09:47:46.675Z,25.11
2024-04-09T09:48:46.650Z,25.11
2024-04-09T09:50:10.286Z,25.11
2024-04-09T09:50:47.601Z,25.07
2024-04-09T09:51:46.639Z,25.09
2024-04-09T09:53:14.626Z,25.10
2024-04-09T09:53:46.620Z,25.05
2024-04-09T09:54:47.035Z,25.08
2024-04-09T09:56:08.450Z,25.09
2024-04-09T09:56:46.612Z,25.06
2024-04-09T09:57:46.616Z,25.09
2024-04-09T09:58:46.595Z,25.10
2024-04-09T09:59:46.593Z,25.10
2024-04-09T10:00:46.666Z,25.10
2024-04-09T10:01:46.649Z,25.10
2024-04-09T10:02:50.728Z,25.11
2024-04-09T10:03:46.737Z,25.11
2024-04-09T10:04:46.664Z,25.12
2024-04-09T10:05:46.623Z,25.12
2024-04-09T10:06:46.619Z,25.13
2024-04-09T10:07:46.591Z,25.13
2024-04-09T10:08:46.599Z,25.14
2024-04-09T10:09:46.701Z,25.14
2024-04-09T10:10:46.610Z,25.14
2024-04-09T10:11:46.735Z,25.15
2024-04-09T10:12:46.810Z,25.15
2024-04-09T10:13:46.599Z,25.16
2024-04-09T10:14:46.635Z,25.17
2024-04-09T10:15:46.757Z,25.17
2024-04-09T10:16:46.704Z,25.17
2024-04-09T10:17:53.622Z,25.17
2024-04-09T10:18:46.927Z,25.17
2024-04-09T10:19:46.981Z,25.18
2024-04-09T10:21:01.581Z,25.18
2024-04-09T10:21:46.777Z,25.16
2024-04-09T10:22:46.741Z,25.17
2024-04-09T10:23:46.741Z,25.18
2024-04-09T10:24:46.837Z,25.18
2024-04-09T10:25:46.735Z,25.18
2024-04-09T10:26:46.737Z,25.19
2024-04-09T10:27:46.831Z,25.20
2024-04-09T10:28:46.744Z,25.20
2024-04-09T10:29:46.752Z,25.21
2024-04-09T10:30:46.883Z,25.21
2024-04-09T10:31:46.765Z,25.22
2024-04-09T10:32:46.762Z,25.22
2024-04-09T10:33:46.809Z,25.22
2024-04-09T10:34:47.083Z,25.23
2024-04-09T10:35:46.774Z,25.24
2024-04-09T10:36:46.837Z,25.24
2024-04-09T10:37:46.727Z,25.24
2024-04-09T10:38:46.741Z,25.25
2024-04-09T10:39:47.043Z,25.25
2024-04-09T10:40:46.751Z,25.25
2024-04-09T10:41:46.718Z,25.26
2024-04-09T10:42:53.504Z,25.27
2024-04-09T10:43:46.719Z,25.26
2024-04-09T10:44:46.735Z,25.27
2024-04-09T10:46:08.371Z,25.27
2024-04-09T10:46:47.725Z,25.25
2024-04-09T10:47:46.814Z,25.26
2024-04-09T10:49:13.092Z,25.28
2024-04-09T10:49:46.784Z,25.24
2024-04-09T10:50:46.829Z,25.28
2024-04-09T10:51:46.947Z,25.28
2024-04-09T10:52:46.959Z,25.30
2024-04-09T10:53:47.037Z,25.30
2024-04-09T10:54:47.135Z,25.31
2024-04-09T10:55:47.163Z,25.32
2024-04-09T10:56:47.316Z,25.33
2024-04-09T10:57:47.329Z,25.35
2024-04-09T10:58:47.358Z,25.36
2024-04-09T10:59:47.423Z,25.37
2024-04-09T11:00:47.580Z,25.37
2024-04-09T11:01:47.567Z,25.37
2024-04-09T11:02:47.675Z,25.37
2024-04-09T11:03:47.854Z,25.37
2024-04-09T11:04:58.579Z,25.38
2024-04-09T11:05:47.743Z,25.37
2024-04-09T11:06:47.801Z,25.38
2024-04-09T11:07:54.475Z,25.38
2024-04-09T11:08:47.834Z,25.39
2024-04-09T11:09:48.120Z,25.39
2024-04-09T11:10:50.494Z,25.41
2024-04-09T11:11:47.748Z,25.42
2024-04-09T11:12:47.799Z,25.44
2024-04-09T11:14:10.501Z,25.45
2024-04-09T11:14:47.754Z,25.43
2024-04-09T11:15:47.836Z,25.46
2024-04-09T11:16:47.725Z,25.49
2024-04-09T11:17:47.763Z,25.50
2024-04-09T11:18:47.852Z,25.50
2024-04-09T11:19:50.154Z,25.52
2024-04-09T11:20:47.704Z,25.52
2024-04-09T11:21:47.743Z,25.53
2024-04-09T11:22:47.683Z,25.53
2024-04-09T11:23:47.724Z,25.54
2024-04-09T11:24:47.724Z,25.55
2024-04-09T11:25:47.672Z,25.55
2024-04-09T11:26:47.664Z,25.55
2024-04-09T11:27:47.702Z,25.56
2024-04-09T11:28:47.645Z,25.56
2024-04-09T11:29:47.651Z,25.56
2024-04-09T11:30:47.712Z,25.56
2024-04-09T11:31:47.626Z,25.56
2024-04-09T11:32:50.588Z,25.56
2024-04-09T11:33:47.713Z,25.55
2024-04-09T11:34:47.710Z,25.56
2024-04-09T11:36:10.365Z,25.56
2024-04-09T11:36:48.644Z,25.53
2024-04-09T11:37:47.598Z,25.55
2024-04-09T11:39:02.553Z,25.56
2024-04-09T11:39:47.683Z,25.55
2024-04-09T11:40:47.562Z,25.56
2024-04-09T11:41:48.637Z,25.55
2024-04-09T11:42:47.587Z,25.56
2024-04-09T11:43:47.547Z,25.55
2024-04-09T11:44:47.544Z,25.56
2024-04-09T11:45:47.583Z,25.56
2024-04-09T11:46:47.551Z,25.55
2024-04-09T11:47:47.640Z,25.55
2024-04-09T11:48:47.656Z,25.56
2024-04-09T11:49:47.540Z,25.56
2024-04-09T11:50:47.514Z,25.56
2024-04-09T11:51:47.541Z,25.57
2024-04-09T11:52:47.533Z,25.57
2024-04-09T11:53:47.503Z,25.57
2024-04-09T11:54:47.565Z,25.58
2024-04-09T11:55:47.497Z,25.58
2024-04-09T11:56:47.489Z,25.58
2024-04-09T11:57:47.566Z,25.58
2024-04-09T11:58:47.466Z,25.59
2024-04-09T11:59:47.463Z,25.59
2024-04-09T12:01:03.539Z,25.59
2024-04-09T12:01:47.525Z,25.58
2024-04-09T12:02:47.426Z,25.59
2024-04-09T12:04:08.670Z,25.60
2024-04-09T12:04:47.700Z,25.56
2024-04-09T12:05:47.476Z,25.58
2024-04-09T12:07:15.483Z,25.60
2024-04-09T12:07:47.438Z,25.56
2024-04-09T12:08:47.417Z,25.57
2024-04-09T12:09:47.485Z,25.60
2024-04-09T12:10:47.430Z,25.60
2024-04-09T12:11:47.379Z,25.61
2024-04-09T12:12:47.512Z,25.61
2024-04-09T12:13:47.362Z,25.62
2024-04-09T12:14:47.389Z,25.61
2024-04-09T12:15:47.462Z,25.62
2024-04-09T12:16:47.373Z,25.63
2024-04-09T12:17:47.387Z,25.62
2024-04-09T12:18:47.642Z,25.63
2024-04-09T12:19:47.425Z,25.63
2024-04-09T12:20:47.356Z,25.63
2024-04-09T12:21:47.425Z,25.63
2024-04-09T12:22:53.989Z,25.64
2024-04-09T12:23:47.365Z,25.63
2024-04-09T12:24:47.450Z,25.62
2024-04-09T12:25:54.495Z,25.64
2024-04-09T12:26:47.330Z,25.63
2024-04-09T12:27:47.404Z,25.64
2024-04-09T12:29:01.992Z,25.65
2024-04-09T12:29:47.417Z,25.63
2024-04-09T12:30:47.443Z,25.63
2024-04-09T12:32:01.988Z,25.63
2024-04-09T12:32:47.480Z,25.61
2024-04-09T12:33:47.426Z,25.62
2024-04-09T12:34:47.567Z,25.62
2024-04-09T12:35:47.310Z,25.62
2024-04-09T12:36:47.398Z,25.62
2024-04-09T12:37:47.268Z,25.62
2024-04-09T12:38:47.260Z,25.61
2024-04-09T12:39:47.346Z,25.62
2024-04-09T12:40:47.246Z,25.61
2024-04-09T12:41:47.231Z,25.62
2024-04-09T12:42:47.333Z,25.61
2024-04-09T12:43:47.205Z,25.62
2024-04-09T12:44:47.194Z,25.61
2024-04-09T12:45:47.380Z,25.61
2024-04-09T12:46:47.204Z,25.61
2024-04-09T12:47:47.269Z,25.60
2024-04-09T12:49:04.855Z,25.60
2024-04-09T12:49:48.291Z,25.60
2024-04-09T12:50:47.228Z,25.60
2024-04-09T12:51:47.213Z,25.60
2024-04-09T12:52:47.143Z,25.60
2024-04-09T12:53:47.141Z,25.61